Terminal Aerodrome Forecast
Issued by NWS

Home | Current Version | Previous Version | Text Only | Print | Product List | Glossary On
Versions: 1 2 3 4 5 6 7 8 9 10 11 12 13 14 15 16 17 18 19 20 21 22 23
000
FTAK31 PAFA 191735
TAFAFA
TAF
PAFA 191735Z 1918/2024 18003KT P6SM FEW090 FEW120 SCT200
     FM200300 29003KT P6SM OVC050
     FM200900 00000KT P6SM -RA OVC035
     FM201200 20002KT 5SM -RA BR OVC025
     FM201600 22008KT 3SM -RA BR OVC015=

USA.gov is the U.S. government's official web portal to all federal, state and local government web resources and services.